Time;durP1;ratioP1;P1;durP2;ratioP2;P2;SDS_P1;SDS_P2;PMS_P1;PMS_P2;Temp;Humidity;BMP_temperature;BMP_pressure;BME280_temperature;BME280_humidity;BME280_pressure;Samples;Min_cycle;Max_cycle;Signal;HPM_P1;HPM_P2
2022/11/10 00:00:33;;;;;;;7.40;2.10;;;10.10;99.90;;;;;;5054980;28;20217;-56
2022/11/10 00:03:03;;;;;;;8.43;2.60;;;10.10;99.90;;;;;;5054596;28;20283;-52
2022/11/10 00:05:31;;;;;;;9.57;2.23;;;10.00;99.90;;;;;;5055033;28;20209;-52
2022/11/10 00:08:02;;;;;;;8.13;2.33;;;10.00;99.90;;;;;;5054253;28;20647;-50
2022/11/10 00:10:29;;;;;;;7.97;2.50;;;10.00;99.90;;;;;;5054783;28;20205;-56
2022/11/10 00:13:00;;;;;;;5.23;2.40;;;10.00;99.90;;;;;;5054383;28;20253;-54
2022/11/10 00:18:25;;;;;;;7.63;2.17;;;10.00;99.90;;;;;;5053435;28;20209;-55
2022/11/10 00:20:52;;;;;;;10.50;2.37;;;10.00;99.90;;;;;;5054512;28;20221;-55
2022/11/10 00:23:20;;;;;;;5.73;2.20;;;9.90;99.90;;;;;;5054306;28;20225;-55
2022/11/10 00:25:46;;;;;;;8.50;2.33;;;9.90;99.90;;;;;;5054234;28;20215;-56
2022/11/10 00:28:13;;;;;;;3.73;1.73;;;9.90;99.90;;;;;;5054288;28;20636;-56
2022/11/10 00:30:40;;;;;;;7.03;1.83;;;9.90;99.90;;;;;;5054231;28;20606;-56
2022/11/10 00:33:07;;;;;;;8.03;2.40;;;9.80;99.90;;;;;;5054049;28;20260;-56
2022/11/10 00:35:34;;;;;;;11.97;2.93;;;9.80;99.90;;;;;;5054195;28;20213;-58
2022/11/10 00:38:00;;;;;;;7.93;2.03;;;9.80;99.90;;;;;;5053659;28;20205;-57
2022/11/10 00:40:28;;;;;;;8.90;2.87;;;9.80;99.90;;;;;;5054041;28;20209;-57
2022/11/10 00:42:55;;;;;;;5.73;1.90;;;9.80;99.90;;;;;;5054001;28;20233;-58
2022/11/10 00:45:22;;;;;;;7.67;2.40;;;9.80;99.90;;;;;;5054056;28;20209;-57
2022/11/10 00:47:48;;;;;;;7.53;2.63;;;9.80;99.90;;;;;;5053230;28;20225;-57
2022/11/10 00:50:16;;;;;;;8.03;2.20;;;9.80;99.90;;;;;;5053703;28;20270;-55
2022/11/10 00:52:42;;;;;;;11.87;2.13;;;9.80;99.90;;;;;;5053614;28;20237;-57
2022/11/10 00:55:09;;;;;;;8.40;2.20;;;9.80;99.90;;;;;;5053669;28;20205;-57
2022/11/10 00:57:37;;;;;;;6.27;2.03;;;9.70;99.90;;;;;;5053583;28;20235;-57
2022/11/10 01:00:04;;;;;;;8.23;2.20;;;9.80;99.90;;;;;;5053784;28;20206;-58
2022/11/10 01:02:31;;;;;;;9.67;2.83;;;9.70;99.90;;;;;;5053491;28;20782;-58
2022/11/10 01:04:57;;;;;;;7.37;2.73;;;9.70;99.90;;;;;;5053577;28;20217;-57
2022/11/10 01:07:24;;;;;;;9.13;2.17;;;9.70;99.90;;;;;;5053059;28;20757;-58
2022/11/10 01:09:51;;;;;;;9.50;2.10;;;9.70;99.90;;;;;;5053549;28;20617;-58
2022/11/10 01:12:17;;;;;;;10.23;2.50;;;9.70;99.90;;;;;;5053277;28;20226;-58
2022/11/10 01:14:47;;;;;;;7.63;2.10;;;9.70;99.90;;;;;;5053638;28;20201;-55
2022/11/10 01:17:14;;;;;;;6.70;2.30;;;9.60;99.90;;;;;;5053216;28;20204;-57
2022/11/10 01:19:41;;;;;;;4.67;1.67;;;9.60;99.90;;;;;;5053420;28;20267;-58
2022/11/10 01:22:08;;;;;;;10.77;2.70;;;9.70;99.90;;;;;;5053061;28;20746;-54
2022/11/10 01:24:35;;;;;;;7.80;1.90;;;9.60;99.90;;;;;;5053598;28;20210;-57
2022/11/10 01:27:01;;;;;;;8.70;2.20;;;9.60;99.90;;;;;;5052850;28;20263;-51
2022/11/10 01:29:28;;;;;;;18.47;2.60;;;9.60;99.90;;;;;;5053402;28;20220;-57
2022/11/10 01:31:56;;;;;;;12.80;3.00;;;9.60;99.90;;;;;;5053385;28;20232;-56
2022/11/10 01:34:23;;;;;;;4.43;1.90;;;9.60;99.90;;;;;;5053014;28;20211;-56
2022/11/10 01:36:50;;;;;;;8.57;2.17;;;9.60;99.90;;;;;;5052894;28;20591;-53
2022/11/10 01:39:16;;;;;;;10.83;2.00;;;9.60;99.90;;;;;;5053344;28;20207;-58
2022/11/10 01:41:43;;;;;;;10.50;2.73;;;9.60;99.90;;;;;;5052744;28;20533;-56
2022/11/10 01:44:20;;;;;;;8.20;2.10;;;9.60;99.90;;;;;;5053139;28;20239;-58
2022/11/10 01:46:47;;;;;;;12.43;2.40;;;9.70;99.90;;;;;;5052680;28;20561;-58
2022/11/10 01:49:19;;;;;;;8.00;2.20;;;9.70;99.90;;;;;;5052674;28;20708;-53
2022/11/10 01:51:50;;;;;;;7.43;1.83;;;9.70;99.90;;;;;;5053108;28;20229;-57
2022/11/10 01:54:21;;;;;;;10.30;2.10;;;9.70;99.90;;;;;;5052987;28;20255;-55
2022/11/10 01:56:51;;;;;;;6.97;1.87;;;9.60;99.90;;;;;;5052864;28;20213;-56
2022/11/10 01:59:24;;;;;;;9.30;2.10;;;9.60;99.90;;;;;;5052698;28;20251;-58
2022/11/10 02:01:54;;;;;;;10.63;2.27;;;9.60;99.90;;;;;;5052135;28;20230;-55
2022/11/10 02:04:22;;;;;;;8.63;2.30;;;9.60;99.90;;;;;;5052327;28;20212;-57
2022/11/10 02:06:50;;;;;;;11.33;2.47;;;9.50;99.90;;;;;;5052239;28;20252;-58
2022/11/10 02:09:17;;;;;;;6.43;2.13;;;9.50;99.90;;;;;;5052301;28;20789;-58
2022/11/10 02:11:45;;;;;;;10.53;2.10;;;9.50;99.90;;;;;;5052497;28;20264;-57
2022/11/10 02:14:13;;;;;;;8.10;2.20;;;9.60;99.90;;;;;;5052170;28;20220;-57
2022/11/10 02:16:40;;;;;;;9.27;2.47;;;9.50;99.90;;;;;;5052274;28;20209;-56
2022/11/10 02:19:18;;;;;;;14.10;2.43;;;9.50;99.90;;;;;;5052232;28;20198;-57
2022/11/10 02:21:46;;;;;;;7.63;2.00;;;9.60;99.90;;;;;;5052021;28;20717;-55
2022/11/10 02:24:13;;;;;;;7.60;1.97;;;9.50;99.90;;;;;;5052094;28;20209;-58
2022/11/10 02:26:45;;;;;;;5.33;2.03;;;9.60;99.90;;;;;;5051703;28;20730;-58
2022/11/10 02:29:12;;;;;;;8.33;2.10;;;9.60;99.90;;;;;;5052222;28;20225;-58
2022/11/10 02:31:38;;;;;;;11.20;2.47;;;9.60;99.90;;;;;;5052239;28;20822;-58
2022/11/10 02:34:05;;;;;;;10.93;2.23;;;9.60;99.90;;;;;;5051878;28;20725;-58
2022/11/10 02:36:32;;;;;;;6.97;2.03;;;9.70;99.90;;;;;;5051763;28;20254;-58
2022/11/10 02:39:00;;;;;;;9.00;2.50;;;9.60;99.90;;;;;;5051150;28;20587;-58
2022/11/10 02:41:26;;;;;;;6.90;3.53;;;9.70;99.90;;;;;;5051681;28;20247;-57
2022/11/10 02:43:54;;;;;;;6.43;2.17;;;9.70;99.90;;;;;;5051723;28;20209;-58
2022/11/10 02:46:20;;;;;;;10.00;2.23;;;9.70;99.90;;;;;;5051923;28;20583;-53
2022/11/10 02:48:47;;;;;;;12.20;2.43;;;9.70;99.90;;;;;;5051817;28;20646;-58
2022/11/10 02:51:14;;;;;;;14.40;2.40;;;9.70;99.90;;;;;;5051896;28;20213;-58
2022/11/10 02:53:40;;;;;;;20.20;2.33;;;9.70;99.90;;;;;;5051625;28;20225;-57
2022/11/10 02:56:09;;;;;;;10.33;1.83;;;9.70;99.90;;;;;;5051441;28;20639;-55
2022/11/10 02:58:35;;;;;;;9.70;1.90;;;9.60;99.90;;;;;;5051852;28;20205;-56
2022/11/10 03:01:05;;;;;;;8.13;1.63;;;9.60;99.90;;;;;;5051625;28;20209;-57
2022/11/10 03:03:32;;;;;;;9.20;2.00;;;9.60;99.90;;;;;;5051366;28;20751;-58
2022/11/10 03:05:59;;;;;;;9.00;1.93;;;9.60;99.90;;;;;;5051476;28;20212;-58
2022/11/10 03:08:25;;;;;;;10.93;2.20;;;9.60;99.90;;;;;;5051381;28;20239;-57
2022/11/10 03:10:53;;;;;;;14.00;2.57;;;9.60;99.90;;;;;;5051835;28;20206;-58
2022/11/10 03:13:21;;;;;;;6.70;1.60;;;9.50;99.90;;;;;;5051298;28;20316;-58
2022/11/10 03:15:48;;;;;;;7.80;2.33;;;9.50;99.90;;;;;;5051653;28;20214;-58
2022/11/10 03:18:15;;;;;;;5.73;1.80;;;9.50;99.90;;;;;;5051461;28;20205;-54
2022/11/10 03:20:42;;;;;;;12.90;1.90;;;9.50;99.90;;;;;;5051326;28;20714;-58
2022/11/10 03:23:09;;;;;;;9.80;2.07;;;9.50;99.90;;;;;;5051458;28;20229;-60
2022/11/10 03:25:37;;;;;;;12.47;2.20;;;9.50;99.90;;;;;;5051670;28;20205;-58
2022/11/10 03:28:04;;;;;;;16.77;2.30;;;9.50;99.90;;;;;;5051411;28;20230;-55
2022/11/10 03:30:32;;;;;;;8.30;2.07;;;9.50;99.90;;;;;;5051365;28;20229;-58
2022/11/10 03:32:59;;;;;;;12.20;2.27;;;9.50;99.90;;;;;;5051372;28;20229;-56
2022/11/10 03:35:25;;;;;;;6.87;2.27;;;9.60;99.90;;;;;;5050837;28;20213;-57
2022/11/10 03:37:52;;;;;;;11.77;1.93;;;9.50;99.90;;;;;;5051407;28;20208;-57
2022/11/10 03:40:19;;;;;;;9.50;1.90;;;9.50;99.90;;;;;;5051403;28;20271;-55
2022/11/10 03:42:46;;;;;;;11.43;1.80;;;9.60;99.90;;;;;;5051428;28;20643;-57
2022/11/10 03:45:14;;;;;;;7.27;1.90;;;9.60;99.90;;;;;;5051244;28;20210;-55
2022/11/10 03:47:45;;;;;;;7.33;2.67;;;9.60;99.90;;;;;;5051210;28;20251;-55
2022/11/10 03:50:12;;;;;;;14.23;2.10;;;9.60;99.90;;;;;;5052589;28;20296;-58
2022/11/10 03:52:39;;;;;;;15.43;2.13;;;9.60;99.90;;;;;;5055257;28;20611;-58
2022/11/10 03:55:07;;;;;;;8.50;2.00;;;9.60;99.90;;;;;;5055025;28;20339;-56
2022/11/10 03:57:33;;;;;;;12.27;2.70;;;9.60;99.90;;;;;;5054642;28;20213;-57
2022/11/10 04:00:00;;;;;;;7.57;1.80;;;9.60;99.90;;;;;;5054767;28;20294;-58
2022/11/10 04:02:27;;;;;;;7.37;2.20;;;9.60;99.90;;;;;;5054733;28;20228;-58
2022/11/10 04:10:41;;;;;;;9.13;2.07;;;9.60;99.90;;;;;;5049623;28;20571;-58
2022/11/10 04:15:52;;;;;;;7.20;2.07;;;9.50;99.90;;;;;;5054790;28;20644;-53
2022/11/10 04:18:24;;;;;;;14.67;2.23;;;9.40;99.90;;;;;;5054302;28;20202;-56
2022/11/10 04:20:54;;;;;;;11.97;2.07;;;9.40;99.90;;;;;;5054493;28;20274;-55
2022/11/10 04:23:27;;;;;;;14.37;2.50;;;9.40;99.90;;;;;;5054384;28;20316;-51
2022/11/10 04:28:43;;;;;;;13.60;2.23;;;9.40;99.90;;;;;;5054369;28;20288;-52
2022/11/10 04:31:09;;;;;;;9.60;2.00;;;9.50;99.90;;;;;;5054103;28;20264;-55
2022/11/10 04:33:38;;;;;;;6.80;1.87;;;9.40;99.90;;;;;;5054163;28;20242;-54
2022/11/10 04:36:07;;;;;;;14.20;2.50;;;9.40;99.90;;;;;;5053959;28;20205;-52
2022/11/10 04:38:34;;;;;;;12.70;2.07;;;9.40;99.90;;;;;;5054022;28;20924;-52
2022/11/10 04:41:01;;;;;;;9.20;2.10;;;9.40;99.90;;;;;;5053998;28;20209;-56
2022/11/10 04:43:27;;;;;;;10.90;2.47;;;9.40;99.90;;;;;;5054070;28;20229;-52
2022/11/10 04:45:55;;;;;;;12.13;2.37;;;9.40;99.90;;;;;;5053419;28;20213;-55
2022/11/10 04:48:22;;;;;;;11.57;2.10;;;9.30;99.90;;;;;;5053756;28;20232;-54
2022/11/10 04:50:49;;;;;;;11.50;2.57;;;9.30;99.90;;;;;;5053966;28;20202;-57
2022/11/10 04:53:17;;;;;;;12.60;2.23;;;9.30;99.90;;;;;;5053894;28;20226;-55
2022/11/10 04:55:45;;;;;;;9.47;2.00;;;9.30;99.90;;;;;;5053727;28;20207;-56
2022/11/10 04:58:12;;;;;;;8.53;2.07;;;9.30;99.90;;;;;;5053523;28;20239;-55
2022/11/10 05:00:40;;;;;;;11.73;2.10;;;9.30;99.90;;;;;;5053474;28;20737;-55
2022/11/10 05:03:10;;;;;;;7.73;1.63;;;9.20;99.90;;;;;;5052831;28;20237;-58
2022/11/10 05:05:37;;;;;;;12.90;2.57;;;9.20;99.90;;;;;;5053390;28;20640;-57
2022/11/10 05:08:04;;;;;;;7.97;1.67;;;9.20;99.90;;;;;;5053481;28;20216;-55
2022/11/10 05:10:33;;;;;;;12.93;2.50;;;9.20;99.90;;;;;;5053516;28;20331;-56
2022/11/10 05:12:59;;;;;;;10.77;2.27;;;9.20;99.90;;;;;;5053394;28;20235;-56
2022/11/10 05:15:26;;;;;;;9.17;2.40;;;9.20;99.90;;;;;;5053198;28;20273;-56
2022/11/10 05:17:54;;;;;;;10.77;2.30;;;9.20;99.90;;;;;;5053271;28;20213;-55
2022/11/10 05:20:22;;;;;;;11.23;2.47;;;9.10;99.90;;;;;;5052859;28;20675;-57
2022/11/10 05:25:32;;;;;;;11.23;2.23;;;9.10;99.90;;;;;;5052356;28;20210;-58
2022/11/10 05:27:59;;;;;;;9.97;2.40;;;9.10;99.90;;;;;;5052860;28;20216;-59
2022/11/10 05:30:26;;;;;;;11.87;2.60;;;9.10;99.90;;;;;;5053130;28;20236;-59
2022/11/10 05:32:53;;;;;;;11.93;2.50;;;9.00;99.90;;;;;;5053198;28;20228;-60
2022/11/10 05:35:20;;;;;;;12.67;2.20;;;9.00;99.90;;;;;;5052974;28;20204;-58
2022/11/10 05:37:47;;;;;;;10.10;2.63;;;9.00;99.90;;;;;;5052696;28;20213;-59
2022/11/10 05:40:13;;;;;;;14.50;2.03;;;9.00;99.90;;;;;;5052670;28;20201;-59
2022/11/10 05:42:44;;;;;;;17.97;2.60;;;9.00;99.90;;;;;;5052740;28;20236;-59
2022/11/10 05:45:11;;;;;;;11.40;2.80;;;9.00;99.90;;;;;;5052663;28;20701;-59
2022/11/10 05:47:38;;;;;;;11.83;2.47;;;9.10;99.90;;;;;;5049772;28;20222;-57
2022/11/10 05:50:06;;;;;;;11.23;3.10;;;9.10;99.90;;;;;;5034921;28;20222;-58
2022/11/10 05:52:33;;;;;;;9.93;2.17;;;9.10;99.90;;;;;;5031905;28;20237;-59
2022/11/10 05:55:00;;;;;;;13.33;2.73;;;9.20;99.90;;;;;;5032528;28;20214;-59
2022/11/10 05:57:27;;;;;;;11.13;3.10;;;9.20;99.90;;;;;;5032050;28;20629;-59
2022/11/10 05:59:55;;;;;;;17.03;2.60;;;9.30;99.90;;;;;;5032632;28;20205;-58
2022/11/10 06:02:21;;;;;;;11.27;3.23;;;9.20;99.90;;;;;;5032012;28;20236;-57
2022/11/10 06:04:48;;;;;;;16.07;2.70;;;9.30;99.90;;;;;;5032662;28;20205;-59
2022/11/10 06:07:15;;;;;;;6.23;1.90;;;9.20;99.90;;;;;;5031995;28;20216;-59
2022/11/10 06:09:42;;;;;;;9.67;3.23;;;9.20;99.90;;;;;;5032193;28;20855;-59
2022/11/10 06:12:08;;;;;;;11.00;2.23;;;9.10;99.90;;;;;;5031586;28;20229;-59
2022/11/10 06:14:35;;;;;;;15.37;2.47;;;9.10;99.90;;;;;;5032198;28;20622;-59
2022/11/10 06:17:03;;;;;;;13.87;2.87;;;9.10;99.90;;;;;;5031750;28;20768;-60
2022/11/10 06:19:30;;;;;;;11.37;2.77;;;9.10;99.90;;;;;;5031715;28;20208;-60
2022/11/10 06:21:57;;;;;;;13.23;4.13;;;9.10;99.90;;;;;;5031983;28;20654;-58
2022/11/10 06:24:23;;;;;;;10.63;2.40;;;9.10;99.90;;;;;;5031139;28;20216;-59
2022/11/10 06:26:50;;;;;;;14.67;2.87;;;9.00;99.90;;;;;;5032034;28;20274;-60
2022/11/10 06:29:16;;;;;;;20.67;2.90;;;9.00;99.90;;;;;;5031364;28;20773;-60
2022/11/10 06:31:43;;;;;;;10.90;3.17;;;9.00;99.90;;;;;;5031625;28;20742;-58
2022/11/10 06:34:11;;;;;;;14.93;2.77;;;8.90;99.90;;;;;;5030933;28;20212;-54
2022/11/10 06:36:39;;;;;;;16.63;2.93;;;8.90;99.90;;;;;;5031466;28;20213;-57
2022/11/10 06:39:06;;;;;;;14.53;3.53;;;8.90;99.90;;;;;;5031049;28;20756;-60
2022/11/10 06:41:33;;;;;;;13.30;3.13;;;8.90;99.90;;;;;;5031578;28;20217;-58
2022/11/10 06:44:00;;;;;;;9.73;2.60;;;8.90;99.90;;;;;;5031563;28;20211;-58
2022/11/10 06:46:26;;;;;;;15.67;3.10;;;8.90;99.90;;;;;;5031565;28;20211;-54
2022/11/10 06:48:53;;;;;;;12.60;3.13;;;8.80;99.90;;;;;;5031644;28;20214;-57
2022/11/10 06:51:21;;;;;;;17.83;3.40;;;8.80;99.90;;;;;;5031040;28;20279;-55
2022/11/10 06:53:48;;;;;;;20.13;3.87;;;8.90;99.90;;;;;;5031776;28;20230;-57
2022/11/10 06:56:14;;;;;;;16.67;3.37;;;8.90;99.90;;;;;;5031021;28;20214;-57
2022/11/10 06:58:41;;;;;;;16.40;3.73;;;8.90;99.90;;;;;;5031605;28;20207;-57
2022/11/10 07:01:07;;;;;;;14.03;4.07;;;8.90;99.90;;;;;;5030937;28;20284;-57
2022/11/10 07:03:35;;;;;;;16.50;4.43;;;8.90;99.90;;;;;;5031506;28;20229;-56
2022/11/10 07:06:01;;;;;;;14.93;3.53;;;8.90;99.90;;;;;;5030534;28;20271;-58
2022/11/10 07:08:30;;;;;;;17.20;3.90;;;8.90;99.90;;;;;;5031308;28;20738;-57
2022/11/10 07:10:57;;;;;;;21.40;3.77;;;8.90;99.90;;;;;;5030696;28;20301;-59
2022/11/10 07:13:24;;;;;;;9.60;3.20;;;8.90;99.90;;;;;;5030846;28;20759;-53
2022/11/10 07:15:51;;;;;;;15.53;3.43;;;8.90;99.90;;;;;;5031561;28;20206;-57
2022/11/10 07:18:17;;;;;;;14.63;3.23;;;8.90;99.90;;;;;;5030788;28;20295;-56
2022/11/10 07:20:45;;;;;;;10.57;2.80;;;8.90;99.90;;;;;;5031586;28;20263;-55
2022/11/10 07:23:11;;;;;;;12.97;3.27;;;9.00;99.90;;;;;;5030963;28;20266;-59
2022/11/10 07:25:39;;;;;;;11.80;3.00;;;9.00;99.90;;;;;;5033625;28;20585;-58
2022/11/10 07:28:09;;;;;;;12.03;3.27;;;9.10;99.90;;;;;;5034760;28;20216;-57
2022/11/10 07:30:37;;;;;;;14.30;3.03;;;9.10;99.90;;;;;;5034911;28;20226;-61
2022/11/10 07:33:05;;;;;;;13.03;2.90;;;9.10;99.90;;;;;;5034274;28;20237;-57
2022/11/10 07:35:33;;;;;;;9.57;2.70;;;9.10;99.90;;;;;;5034937;28;20217;-63
2022/11/10 07:38:03;;;;;;;12.37;2.97;;;9.20;99.90;;;;;;5034786;28;20260;-62
2022/11/10 07:40:30;;;;;;;7.70;2.90;;;9.30;99.90;;;;;;5035157;28;20213;-63
2022/11/10 07:42:59;;;;;;;14.40;2.50;;;9.40;99.90;;;;;;5034510;28;20279;-60
2022/11/10 07:45:25;;;;;;;14.13;3.07;;;9.40;99.90;;;;;;5034803;28;20252;-60
2022/11/10 07:47:57;;;;;;;9.97;3.07;;;9.40;99.90;;;;;;5034654;28;20213;-60
2022/11/10 07:50:24;;;;;;;16.43;2.60;;;9.40;99.90;;;;;;5034390;28;20230;-59
2022/11/10 07:52:50;;;;;;;12.60;2.87;;;9.50;99.90;;;;;;5034803;28;20234;-61
2022/11/10 07:55:17;;;;;;;12.97;2.90;;;9.50;99.90;;;;;;5034320;28;20228;-60
2022/11/10 07:57:44;;;;;;;16.63;3.40;;;9.50;99.90;;;;;;5034349;28;20216;-54
2022/11/10 08:00:14;;;;;;;14.17;2.53;;;9.50;99.90;;;;;;5034299;28;20240;-60
2022/11/10 08:02:40;;;;;;;10.83;3.10;;;9.60;99.90;;;;;;5034485;28;20724;-60
2022/11/10 08:05:08;;;;;;;11.93;2.23;;;9.60;99.90;;;;;;5034189;28;20202;-61
2022/11/10 08:07:34;;;;;;;13.87;2.67;;;9.70;99.90;;;;;;5034088;28;20226;-63
2022/11/10 08:10:01;;;;;;;16.70;3.23;;;9.70;99.90;;;;;;5033921;28;20225;-64
2022/11/10 08:12:28;;;;;;;13.13;3.17;;;9.80;99.90;;;;;;5034020;28;20226;-62
2022/11/10 08:14:54;;;;;;;14.60;3.10;;;9.80;99.90;;;;;;5034490;28;20218;-63
2022/11/10 08:17:22;;;;;;;9.10;2.60;;;9.90;99.90;;;;;;5033799;28;20217;-61
2022/11/10 08:19:49;;;;;;;7.90;2.47;;;10.00;99.90;;;;;;5034369;28;20206;-62
2022/11/10 08:22:16;;;;;;;8.63;2.20;;;10.10;99.90;;;;;;5033886;28;20226;-62
2022/11/10 08:24:42;;;;;;;16.87;3.10;;;10.10;99.90;;;;;;5033797;28;20696;-64
2022/11/10 08:27:09;;;;;;;8.70;2.80;;;10.20;99.90;;;;;;5033225;28;20592;-63
2022/11/10 08:29:36;;;;;;;10.20;2.90;;;10.30;99.90;;;;;;5033970;28;20229;-62
2022/11/10 08:32:02;;;;;;;10.03;2.40;;;10.40;99.90;;;;;;5033649;28;20226;-62
2022/11/10 08:34:30;;;;;;;14.73;3.07;;;10.40;99.90;;;;;;5033719;28;20217;-61
2022/11/10 08:36:57;;;;;;;11.10;3.13;;;10.50;99.90;;;;;;5031859;28;20260;-63
2022/11/10 08:39:25;;;;;;;12.03;2.50;;;10.50;99.90;;;;;;5034430;28;20646;-61
2022/11/10 08:41:51;;;;;;;10.07;2.60;;;10.60;99.90;;;;;;5033555;28;20238;-62
2022/11/10 08:44:18;;;;;;;8.23;2.70;;;10.70;99.90;;;;;;5034069;28;20209;-61
2022/11/10 08:46:45;;;;;;;14.70;2.73;;;10.70;99.90;;;;;;5034360;28;20233;-62
2022/11/10 08:49:12;;;;;;;11.60;3.00;;;10.70;99.90;;;;;;5033609;28;20218;-58
2022/11/10 08:51:40;;;;;;;12.87;2.70;;;10.70;99.90;;;;;;5033653;28;20226;-57
2022/11/10 08:54:07;;;;;;;8.43;2.80;;;10.80;99.90;;;;;;5032810;28;20202;-65
2022/11/10 08:56:34;;;;;;;9.30;2.33;;;10.90;99.90;;;;;;5033475;28;20589;-62
2022/11/10 08:59:00;;;;;;;11.90;2.70;;;11.00;99.90;;;;;;5032970;28;20210;-59
2022/11/10 09:01:27;;;;;;;8.80;2.00;;;11.10;99.90;;;;;;5033334;28;20203;-60
2022/11/10 09:03:54;;;;;;;12.73;2.73;;;11.20;99.90;;;;;;5033102;28;20229;-63
2022/11/10 09:06:20;;;;;;;11.07;2.27;;;11.20;99.90;;;;;;5032985;28;20206;-56
2022/11/10 09:08:49;;;;;;;8.23;2.47;;;11.20;99.90;;;;;;5032868;28;20214;-61
2022/11/10 09:11:16;;;;;;;14.63;2.60;;;11.20;99.90;;;;;;5033187;28;20226;-63
2022/11/10 09:13:43;;;;;;;15.00;2.70;;;11.30;99.90;;;;;;5033229;28;20296;-62
2022/11/10 09:16:09;;;;;;;12.20;2.70;;;11.40;99.90;;;;;;5032615;28;20202;-57
2022/11/10 09:18:36;;;;;;;7.93;2.60;;;11.40;99.90;;;;;;5033262;28;20288;-60
2022/11/10 09:21:05;;;;;;;11.23;2.17;;;11.50;99.90;;;;;;5032655;28;20287;-58
2022/11/10 09:23:32;;;;;;;10.90;2.47;;;11.60;99.90;;;;;;5033024;28;20604;-56
2022/11/10 09:26:00;;;;;;;10.73;2.80;;;11.60;99.90;;;;;;5032226;28;20701;-56
2022/11/10 09:28:27;;;;;;;11.43;2.30;;;11.70;99.90;;;;;;5033031;28;20206;-56
2022/11/10 09:30:53;;;;;;;13.63;2.27;;;11.80;99.90;;;;;;5032478;28;20299;-56
2022/11/10 09:33:20;;;;;;;9.43;2.53;;;11.90;99.90;;;;;;5032884;28;20650;-54
2022/11/10 09:35:47;;;;;;;9.80;1.87;;;11.90;99.90;;;;;;5032185;28;20213;-58
2022/11/10 09:38:13;;;;;;;11.93;2.43;;;11.90;99.90;;;;;;5032763;28;20203;-54
2022/11/10 09:40:55;;;;;;;7.30;2.13;;;11.90;99.90;;;;;;5032818;28;20212;-54
2022/11/10 09:43:31;;;;;;;11.70;2.30;;;12.00;99.90;;;;;;5032450;28;20278;-55
2022/11/10 09:46:01;;;;;;;10.07;2.43;;;12.00;99.90;;;;;;5032514;28;20207;-58
2022/11/10 09:48:31;;;;;;;7.83;2.60;;;12.10;99.90;;;;;;5031794;28;20674;-56
2022/11/10 09:51:02;;;;;;;7.73;2.67;;;12.20;99.90;;;;;;5032652;28;20230;-59
2022/11/10 09:53:35;;;;;;;9.90;2.43;;;12.40;99.90;;;;;;5032234;28;20230;-58
2022/11/10 09:56:04;;;;;;;7.53;2.07;;;12.50;99.90;;;;;;5032386;28;20666;-55
2022/11/10 09:58:38;;;;;;;9.27;2.70;;;12.60;99.90;;;;;;5032019;28;20217;-53
2022/11/10 10:01:17;;;;;;;9.33;2.13;;;12.70;99.90;;;;;;5032308;28;20234;-56
2022/11/10 10:03:48;;;;;;;8.93;3.20;;;12.80;99.90;;;;;;5032116;28;20650;-51
2022/11/10 10:06:17;;;;;;;6.87;2.30;;;12.70;95.20;;;;;;5032021;28;20209;-59
2022/11/10 10:08:55;;;;;;;10.07;1.90;;;12.70;99.90;;;;;;5031796;28;20582;-58
2022/11/10 10:11:39;;;;;;;12.70;2.60;;;12.90;99.90;;;;;;5032055;28;20268;-62
2022/11/10 10:14:30;;;;;;;11.23;2.03;;;12.80;98.70;;;;;;5031671;28;20214;-62
2022/11/10 10:17:04;;;;;;;12.37;2.03;;;12.90;97.10;;;;;;5031852;28;20705;-62
2022/11/10 10:19:40;;;;;;;9.83;2.40;;;13.00;94.10;;;;;;5031655;28;20256;-60
2022/11/10 10:22:34;;;;;;;14.60;2.67;;;13.10;94.80;;;;;;5032267;28;20296;-58
2022/11/10 10:25:09;;;;;;;10.23;2.37;;;13.10;89.10;;;;;;5031542;28;20264;-56
2022/11/10 10:27:40;;;;;;;11.43;2.10;;;13.00;84.80;;;;;;5031827;28;20352;-59
2022/11/10 10:30:14;;;;;;;5.30;1.73;;;13.10;80.60;;;;;;5031177;28;20280;-64
2022/11/10 10:32:41;;;;;;;8.77;2.20;;;13.30;91.00;;;;;;5031858;28;20230;-64
2022/11/10 10:35:13;;;;;;;9.10;2.00;;;13.40;72.90;;;;;;5031285;28;20203;-64
2022/11/10 10:37:44;;;;;;;14.90;3.17;;;13.40;68.20;;;;;;5031648;28;20246;-63
2022/11/10 10:40:16;;;;;;;13.13;2.43;;;13.40;83.10;;;;;;5031207;28;20206;-66
2022/11/10 10:42:43;;;;;;;10.30;2.10;;;13.50;65.00;;;;;;5031481;28;20325;-64
2022/11/10 10:45:16;;;;;;;13.67;2.20;;;13.50;54.70;;;;;;5031765;28;20210;-64
2022/11/10 10:47:43;;;;;;;9.70;2.17;;;13.40;61.00;;;;;;5031356;28;20268;-66
2022/11/10 10:50:21;;;;;;;10.80;2.20;;;13.50;55.50;;;;;;5031687;28;20218;-65
2022/11/10 10:53:06;;;;;;;14.60;2.27;;;13.50;63.30;;;;;;5031252;28;20249;-65
2022/11/10 10:55:33;;;;;;;12.17;2.03;;;13.50;57.40;;;;;;5031806;28;20210;-65
2022/11/10 10:58:03;;;;;;;13.13;2.37;;;13.60;49.60;;;;;;5031024;28;20268;-66
2022/11/10 11:00:32;;;;;;;23.43;5.37;;;13.60;31.80;;;;;;5031058;28;20248;-65
2022/11/10 11:03:03;;;;;;;10.10;2.57;;;13.80;37.70;;;;;;5030717;28;20310;-66
2022/11/10 11:05:30;;;;;;;11.20;2.03;;;13.90;47.30;;;;;;5031288;28;20669;-67
2022/11/10 11:07:58;;;;;;;18.03;2.63;;;13.80;24.10;;;;;;5030887;28;20263;-65
2022/11/10 11:10:28;;;;;;;11.20;2.47;;;13.80;19.00;;;;;;5031434;28;20566;-64
2022/11/10 11:12:58;;;;;;;10.43;2.13;;;13.80;35.80;;;;;;5030956;28;20234;-66
2022/11/10 11:15:28;;;;;;;12.63;3.07;;;13.80;15.30;;;;;;5031217;28;20206;-64
2022/11/10 11:17:58;;;;;;;10.97;1.90;;;13.90;34.10;;;;;;5030609;28;20206;-64
2022/11/10 11:20:39;;;;;;;9.90;2.07;;;14.00;45.30;;;;;;5031042;28;20206;-64
2022/11/10 11:23:31;;;;;;;15.33;2.63;;;13.90;19.50;;;;;;5030655;28;20229;-63
2022/11/10 11:26:03;;;;;;;15.93;3.47;;;13.90;21.30;;;;;;5031012;28;20214;-67
2022/11/10 11:28:38;;;;;;;17.87;2.60;;;13.90;17.80;;;;;;5031471;28;20690;-64
2022/11/10 11:31:12;;;;;;;16.83;2.50;;;14.00;28.20;;;;;;5050683;28;20221;-65
2022/11/10 11:33:45;;;;;;;13.20;2.60;;;14.20;42.10;;;;;;5050239;28;20229;-64
2022/11/10 11:36:21;;;;;;;10.23;2.83;;;14.20;6.50;;;;;;5050161;28;20205;-63
2022/11/10 11:38:56;;;;;;;11.87;2.70;;;14.20;6.70;;;;;;5050181;28;20214;-63
2022/11/10 11:41:37;;;;;;;10.47;2.30;;;14.20;13.20;;;;;;5050571;28;20677;-63
2022/11/10 11:44:23;;;;;;;10.63;2.03;;;14.20;1.00;;;;;;5049561;28;20213;-64
2022/11/10 11:47:01;;;;;;;6.93;2.07;;;14.30;1.00;;;;;;5049781;28;20708;-64
2022/11/10 11:49:51;;;;;;;12.60;2.50;;;14.40;1.00;;;;;;5050693;28;20618;-66
2022/11/10 11:55:37;;;;;;;8.83;2.10;;;14.30;3.80;;;;;;5031721;28;20334;-65
2022/11/10 11:58:22;;;;;;;9.63;2.13;;;14.40;1.00;;;;;;5049999;28;20213;-66
2022/11/10 12:00:59;;;;;;;10.33;2.47;;;14.50;1.00;;;;;;5050463;28;20728;-65
2022/11/10 12:03:47;;;;;;;10.67;1.87;;;14.50;1.00;;;;;;5050251;28;20233;-65
2022/11/10 12:06:29;;;;;;;8.33;2.00;;;14.50;1.00;;;;;;5050282;28;20277;-66
2022/11/10 12:09:01;;;;;;;10.43;2.20;;;14.40;1.00;;;;;;5049889;28;20209;-65
2022/11/10 12:11:39;;;;;;;9.13;1.83;;;14.40;1.00;;;;;;5051971;28;20232;-63
2022/11/10 12:14:16;;;;;;;11.00;2.03;;;14.40;1.00;;;;;;5053583;28;20205;-64
2022/11/10 12:16:47;;;;;;;6.53;1.53;;;14.50;1.00;;;;;;5054039;28;20205;-62
2022/11/10 12:19:24;;;;;;;7.07;1.93;;;14.50;1.00;;;;;;5053530;28;20263;-60
2022/11/10 12:21:58;;;;;;;9.50;1.67;;;14.60;1.00;;;;;;5053809;28;20221;-60
2022/11/10 12:24:39;;;;;;;7.43;1.50;;;14.60;1.00;;;;;;5053369;28;20255;-62
2022/11/10 12:27:14;;;;;;;6.13;1.70;;;14.70;1.00;;;;;;5053653;28;20806;-63
2022/11/10 12:29:44;;;;;;;7.07;1.93;;;14.60;1.00;;;;;;5053328;28;20209;-61
2022/11/10 12:32:17;;;;;;;14.00;1.80;;;14.40;1.00;;;;;;5053641;28;20275;-61
2022/11/10 12:34:47;;;;;;;8.73;1.90;;;14.60;1.00;;;;;;5053684;28;20221;-61
2022/11/10 12:37:20;;;;;;;5.93;1.50;;;14.80;1.00;;;;;;5052652;28;20225;-63
2022/11/10 12:39:53;;;;;;;9.70;2.00;;;14.80;99.90;;;;;;5053560;28;20624;-61
2022/11/10 12:42:22;;;;;;;5.80;1.67;;;14.80;99.90;;;;;;5052925;28;20229;-66
2022/11/10 12:44:58;;;;;;;7.53;1.53;;;14.90;99.90;;;;;;5053653;28;20212;-61
2022/11/10 12:47:29;;;;;;;6.13;1.40;;;15.00;1.00;;;;;;5036680;28;20220;-61
2022/11/10 12:50:03;;;;;;;9.37;1.60;;;15.00;1.00;;;;;;5033636;28;20210;-61
2022/11/10 12:52:35;;;;;;;8.53;1.50;;;15.10;99.90;;;;;;5032919;28;20606;-61
2022/11/10 12:55:06;;;;;;;8.60;1.23;;;15.20;99.90;;;;;;5033460;28;20194;-61
2022/11/10 12:57:33;;;;;;;5.30;1.40;;;15.20;99.90;;;;;;5031684;28;20607;-61
2022/11/10 13:00:02;;;;;;;10.57;1.63;;;15.20;99.90;;;;;;5053092;28;20201;-61
2022/11/10 13:02:32;;;;;;;8.00;1.27;;;15.20;99.90;;;;;;5053296;28;20233;-65
2022/11/10 13:05:25;;;;;;;10.13;1.33;;;15.20;1.00;;;;;;5047248;28;20257;-65
2022/11/10 13:08:14;;;;;;;3.67;1.13;;;15.30;1.00;;;;;;5034669;28;20202;-65
2022/11/10 13:10:53;;;;;;;4.03;0.93;;;15.20;99.90;;;;;;5032986;28;20253;-63
2022/11/10 13:13:21;;;;;;;8.53;1.50;;;15.10;99.90;;;;;;5033308;28;20284;-62
2022/11/10 13:15:51;;;;;;;8.73;1.67;;;15.10;1.00;;;;;;5032894;28;20217;-64
2022/11/10 13:18:59;;;;;;;6.53;1.10;;;15.00;1.00;;;;;;5033530;28;20260;-64